createdAt,value
2018-11-03T00:00:14.567Z,22.90
2018-11-03T00:02:44.482Z,25.43
2018-11-03T00:05:14.102Z,25.80
2018-11-03T00:07:43.624Z,28.50
2018-11-03T00:10:12.826Z,25.87
2018-11-03T00:12:41.939Z,27.97
2018-11-03T00:15:11.334Z,27.17
2018-11-03T00:17:40.516Z,29.80
2018-11-03T00:20:09.563Z,27.13
2018-11-03T00:22:38.727Z,27.43
2018-11-03T00:25:08.490Z,27.53
2018-11-03T00:27:37.671Z,26.20
2018-11-03T00:30:08.743Z,26.83
2018-11-03T00:32:37.830Z,26.37
2018-11-03T00:35:07.192Z,26.00
2018-11-03T00:37:36.433Z,27.07
2018-11-03T00:40:07.499Z,28.37
2018-11-03T00:42:36.798Z,25.30
2018-11-03T00:45:07.230Z,27.83
2018-11-03T00:47:36.320Z,24.87
2018-11-03T00:50:06.009Z,26.83
2018-11-03T00:52:35.101Z,29.33
2018-11-03T00:55:04.288Z,26.20
2018-11-03T00:57:33.450Z,27.10
2018-11-03T01:00:02.655Z,27.53
2018-11-03T01:02:31.950Z,28.93
2018-11-03T01:05:01.107Z,27.63
2018-11-03T01:07:30.365Z,28.90
2018-11-03T01:09:59.453Z,27.53
2018-11-03T01:12:28.550Z,28.13
2018-11-03T01:14:57.688Z,24.80
2018-11-03T01:17:26.795Z,24.80
2018-11-03T01:19:55.889Z,27.63
2018-11-03T01:22:25.050Z,25.93
2018-11-03T01:24:54.239Z,22.90
2018-11-03T01:27:23.557Z,24.80
2018-11-03T01:29:52.650Z,24.37
2018-11-03T01:32:21.801Z,24.10
2018-11-03T01:34:51.010Z,24.90
2018-11-03T01:37:20.230Z,24.37
2018-11-03T01:39:49.274Z,21.70
2018-11-03T01:42:18.428Z,22.60
2018-11-03T01:44:47.589Z,23.73
2018-11-03T01:47:16.790Z,23.63
2018-11-03T01:49:45.846Z,20.03
2018-11-03T01:52:15.066Z,25.53
2018-11-03T01:54:44.177Z,23.23
2018-11-03T01:57:13.365Z,27.17
2018-11-03T01:59:42.500Z,23.63
2018-11-03T02:02:11.646Z,21.53
2018-11-03T02:04:40.750Z,23.87
2018-11-03T02:07:09.960Z,23.43
2018-11-03T02:09:39.181Z,21.33
2018-11-03T02:12:08.428Z,24.27
2018-11-03T02:14:37.507Z,24.37
2018-11-03T02:17:06.950Z,24.20
2018-11-03T02:19:36.310Z,25.50
2018-11-03T02:22:05.545Z,23.93
2018-11-03T02:24:34.677Z,25.93
2018-11-03T02:27:03.816Z,20.53
2018-11-03T02:29:32.910Z,21.47
2018-11-03T02:32:02.131Z,24.20
2018-11-03T02:34:31.280Z,21.50
2018-11-03T02:37:00.479Z,22.57
2018-11-03T02:39:29.649Z,21.40
2018-11-03T02:41:58.843Z,20.97
2018-11-03T02:44:27.971Z,20.13
2018-11-03T02:46:57.068Z,20.33
2018-11-03T02:49:26.204Z,21.90
2018-11-03T02:51:55.304Z,22.03
2018-11-03T02:54:24.437Z,22.03
2018-11-03T02:56:53.626Z,20.67
2018-11-03T02:59:22.763Z,22.90
2018-11-03T03:01:52.026Z,21.07
2018-11-03T03:04:21.168Z,19.80
2018-11-03T03:06:50.350Z,20.33
2018-11-03T03:09:19.596Z,20.27
2018-11-03T03:11:48.836Z,19.87
2018-11-03T03:14:18.035Z,19.33
2018-11-03T03:16:47.153Z,20.97
2018-11-03T03:19:16.270Z,20.03
2018-11-03T03:21:45.401Z,16.60
2018-11-03T03:24:14.535Z,20.13
2018-11-03T03:26:43.757Z,16.90
2018-11-03T03:29:12.950Z,18.13
2018-11-03T03:31:42.056Z,14.67
2018-11-03T03:34:11.181Z,18.10
2018-11-03T03:36:40.272Z,19.27
2018-11-03T03:39:10.870Z,16.77
2018-11-03T03:41:40.512Z,16.90
2018-11-03T03:44:09.644Z,17.00
2018-11-03T03:46:38.730Z,16.67
2018-11-03T03:49:07.862Z,15.70
2018-11-03T03:51:36.996Z,16.77
2018-11-03T03:54:06.269Z,16.23
2018-11-03T03:56:35.509Z,16.13
2018-11-03T03:59:04.911Z,14.80
2018-11-03T04:01:33.971Z,16.00
2018-11-03T04:04:03.212Z,15.30
2018-11-03T04:06:32.354Z,16.77
2018-11-03T04:09:01.493Z,15.47
2018-11-03T04:11:30.570Z,14.90
2018-11-03T04:13:59.823Z,15.57
2018-11-03T04:16:28.934Z,14.77
2018-11-03T04:18:58.111Z,14.17
2018-11-03T04:21:29.051Z,14.80
2018-11-03T04:24:07.889Z,16.77
2018-11-03T04:26:37.090Z,16.37
2018-11-03T04:29:06.402Z,14.83
2018-11-03T04:31:35.544Z,14.20
2018-11-03T04:34:04.710Z,14.43
2018-11-03T04:36:33.852Z,13.27
2018-11-03T04:39:03.184Z,12.77
2018-11-03T04:41:32.269Z,13.50
2018-11-03T04:44:01.492Z,11.30
2018-11-03T04:46:30.642Z,11.67
2018-11-03T04:49:02.830Z,10.80
2018-11-03T04:51:33.392Z,10.20
2018-11-03T04:54:02.517Z,10.00
2018-11-03T04:56:31.752Z,8.93
2018-11-03T04:59:00.891Z,9.30
2018-11-03T05:01:29.971Z,8.90
2018-11-03T05:03:59.276Z,9.53
2018-11-03T05:06:28.551Z,9.43
2018-11-03T05:08:57.654Z,9.23
2018-11-03T05:11:26.717Z,8.63
2018-11-03T05:13:55.856Z,8.07
2018-11-03T05:16:24.966Z,8.50
2018-11-03T05:18:54.101Z,6.93
2018-11-03T05:21:23.399Z,6.90
2018-11-03T05:23:52.539Z,6.90
2018-11-03T05:26:21.723Z,7.30
2018-11-03T05:28:50.929Z,7.27
2018-11-03T05:31:20.199Z,5.67
2018-11-03T05:33:49.168Z,6.23
2018-11-03T05:36:18.346Z,5.50
2018-11-03T05:38:47.454Z,5.80
2018-11-03T05:41:16.555Z,5.67
2018-11-03T05:43:45.698Z,5.10
2018-11-03T05:46:14.814Z,4.13
2018-11-03T05:48:44.046Z,4.30
2018-11-03T05:51:13.241Z,4.47
2018-11-03T05:53:42.451Z,4.13
2018-11-03T05:56:11.603Z,3.93
2018-11-03T05:58:40.785Z,3.80
2018-11-03T06:01:09.928Z,3.70
2018-11-03T06:03:39.076Z,3.80
2018-11-03T06:06:08.115Z,3.60
2018-11-03T06:08:37.220Z,3.43
2018-11-03T06:11:06.675Z,3.43
2018-11-03T06:13:35.733Z,3.03
2018-11-03T06:16:04.932Z,3.00
2018-11-03T06:18:34.134Z,3.17
2018-11-03T06:21:03.272Z,2.90
2018-11-03T06:23:32.463Z,2.83
2018-11-03T06:26:01.614Z,2.90
2018-11-03T06:28:30.770Z,3.10
2018-11-03T06:30:59.935Z,3.27
2018-11-03T06:33:29.056Z,2.97
2018-11-03T06:35:58.179Z,2.53
2018-11-03T06:38:27.369Z,2.53
2018-11-03T06:40:56.460Z,2.73
2018-11-03T06:43:32.003Z,3.27
2018-11-03T06:46:01.205Z,2.50
2018-11-03T06:48:30.459Z,2.60
2018-11-03T06:50:59.556Z,3.10
2018-11-03T06:53:28.774Z,2.10
2018-11-03T06:55:58.114Z,2.60
2018-11-03T06:58:27.256Z,3.07
2018-11-03T07:00:56.514Z,3.10
2018-11-03T07:03:25.677Z,3.10
2018-11-03T07:05:54.857Z,2.70
2018-11-03T07:08:23.988Z,2.93
2018-11-03T07:10:53.250Z,3.07
2018-11-03T07:13:22.483Z,2.60
2018-11-03T07:15:51.592Z,3.00
2018-11-03T07:18:20.835Z,2.60
2018-11-03T07:20:49.968Z,2.53
2018-11-03T07:23:19.109Z,2.93
2018-11-03T07:25:48.316Z,2.60
2018-11-03T07:28:17.421Z,2.50
2018-11-03T07:30:46.621Z,2.60
2018-11-03T07:33:15.738Z,2.40
2018-11-03T07:35:45.047Z,2.50
2018-11-03T07:38:14.190Z,2.40
2018-11-03T07:40:43.437Z,2.60
2018-11-03T07:43:12.756Z,2.47
2018-11-03T07:45:41.930Z,2.20
2018-11-03T07:48:12.063Z,2.40
2018-11-03T07:50:41.235Z,2.23
2018-11-03T07:53:10.403Z,2.43
2018-11-03T07:55:39.544Z,2.20
2018-11-03T07:58:08.837Z,2.10
2018-11-03T08:00:38.009Z,2.17
2018-11-03T08:03:07.216Z,2.33
2018-11-03T08:05:36.395Z,1.90
2018-11-03T08:08:06.059Z,2.07
2018-11-03T08:10:35.324Z,2.00
2018-11-03T08:13:04.597Z,2.03
2018-11-03T08:15:33.905Z,2.40
2018-11-03T08:18:03.050Z,2.13
2018-11-03T08:20:32.229Z,2.10
2018-11-03T08:23:01.411Z,1.80
2018-11-03T08:25:30.530Z,1.83
2018-11-03T08:27:59.720Z,1.63
2018-11-03T08:30:28.866Z,1.20
2018-11-03T08:32:58.090Z,1.57
2018-11-03T08:35:27.365Z,1.77
2018-11-03T08:37:56.550Z,2.03
2018-11-03T08:40:25.682Z,1.93
2018-11-03T08:42:54.862Z,2.00
2018-11-03T08:45:24.069Z,1.30
2018-11-03T08:47:53.441Z,1.80
2018-11-03T08:50:22.611Z,1.40
2018-11-03T08:52:51.805Z,1.90
2018-11-03T08:55:20.999Z,1.70
2018-11-03T08:57:50.161Z,1.70
2018-11-03T09:00:19.558Z,1.90
2018-11-03T09:03:00.835Z,1.93
2018-11-03T09:05:30.136Z,1.47
2018-11-03T09:07:59.308Z,1.80
2018-11-03T09:10:28.498Z,1.47
2018-11-03T09:12:57.644Z,1.60
2018-11-03T09:15:26.819Z,2.00
2018-11-03T09:17:56.052Z,1.83
2018-11-03T09:20:25.255Z,1.40
2018-11-03T09:22:54.379Z,1.60
2018-11-03T09:25:23.657Z,1.80
2018-11-03T09:27:52.991Z,1.73
2018-11-03T09:30:22.318Z,1.43
2018-11-03T09:32:51.530Z,2.17
2018-11-03T09:35:20.729Z,2.20
2018-11-03T09:37:49.984Z,2.83
2018-11-03T09:40:19.597Z,2.40
2018-11-03T09:42:49.297Z,2.20
2018-11-03T09:45:18.638Z,2.43
2018-11-03T09:47:47.784Z,2.57
2018-11-03T09:50:17.082Z,1.97
2018-11-03T09:52:46.179Z,2.80
2018-11-03T09:55:17.322Z,3.03
2018-11-03T09:57:46.541Z,3.20
2018-11-03T10:00:17.229Z,3.30
2018-11-03T10:02:46.592Z,3.70
2018-11-03T10:05:16.337Z,3.83
2018-11-03T10:07:45.676Z,3.67
2018-11-03T10:10:17.261Z,3.90
2018-11-03T10:12:46.559Z,3.67
2018-11-03T10:15:17.258Z,3.87
2018-11-03T10:17:46.914Z,4.00
2018-11-03T10:20:16.216Z,3.33
2018-11-03T10:22:45.473Z,3.43
2018-11-03T10:25:17.034Z,3.40
2018-11-03T10:27:46.690Z,3.13
2018-11-03T10:30:16.839Z,4.40
2018-11-03T10:32:46.417Z,3.70
2018-11-03T10:35:15.941Z,4.20
2018-11-03T10:37:45.324Z,3.93
2018-11-03T10:40:15.775Z,3.87
2018-11-03T10:42:44.991Z,4.17
2018-11-03T10:45:16.139Z,4.50
2018-11-03T10:47:45.693Z,4.67
2018-11-03T10:50:17.600Z,4.37
2018-11-03T10:52:47.369Z,5.57
2018-11-03T10:55:17.792Z,4.67
2018-11-03T10:57:47.096Z,4.43
2018-11-03T11:00:22.762Z,4.57
2018-11-03T11:03:06.010Z,4.67
2018-11-03T11:06:41.570Z,5.00
2018-11-03T11:09:15.849Z,4.80
2018-11-03T11:11:50.175Z,5.83
2018-11-03T11:14:19.991Z,6.93
2018-11-03T11:16:49.145Z,6.80
2018-11-03T11:19:18.234Z,7.83
2018-11-03T11:21:47.369Z,6.93
2018-11-03T11:24:16.611Z,7.77
2018-11-03T11:26:45.753Z,7.40
2018-11-03T11:29:14.990Z,7.13
2018-11-03T11:31:44.099Z,7.77
2018-11-03T11:34:13.399Z,7.93
2018-11-03T11:36:42.662Z,7.57
2018-11-03T11:39:11.784Z,7.50
2018-11-03T11:41:40.916Z,8.33
2018-11-03T11:44:10.057Z,8.37
2018-11-03T11:46:39.312Z,7.80
2018-11-03T11:49:08.435Z,7.37
2018-11-03T11:51:37.627Z,7.60
2018-11-03T11:54:06.978Z,8.00
2018-11-03T11:56:36.141Z,7.20
2018-11-03T11:59:05.363Z,7.73
2018-11-03T12:01:34.518Z,8.07
2018-11-03T12:04:03.741Z,7.07
2018-11-03T12:06:32.829Z,8.60
2018-11-03T12:09:01.980Z,7.97
2018-11-03T12:11:31.274Z,7.40
2018-11-03T12:14:00.493Z,8.43
2018-11-03T12:16:29.649Z,9.20
2018-11-03T12:18:58.728Z,8.63
2018-11-03T12:21:28.048Z,8.20
2018-11-03T12:23:57.351Z,8.70
2018-11-03T12:26:26.442Z,7.53
2018-11-03T12:28:55.750Z,9.53
2018-11-03T12:31:24.947Z,9.93
2018-11-03T12:33:54.216Z,8.47
2018-11-03T12:36:23.441Z,8.77
2018-11-03T12:38:52.691Z,9.40
2018-11-03T12:41:21.887Z,107.60
2018-11-03T12:43:51.030Z,9.87
2018-11-03T12:46:20.171Z,9.20
2018-11-03T12:48:49.411Z,8.37
2018-11-03T12:51:18.553Z,9.27
2018-11-03T12:53:47.806Z,10.43
2018-11-03T12:56:17.035Z,10.40
2018-11-03T12:58:46.265Z,10.77
2018-11-03T13:01:15.466Z,10.80
2018-11-03T13:03:44.717Z,9.23
2018-11-03T13:06:14.015Z,9.83
2018-11-03T13:08:43.260Z,10.63
2018-11-03T13:11:12.395Z,10.30
2018-11-03T13:13:41.630Z,11.23
2018-11-03T13:16:10.738Z,11.07
2018-11-03T13:18:39.976Z,11.07
2018-11-03T13:21:09.220Z,12.00
2018-11-03T13:23:38.369Z,11.90
2018-11-03T13:26:07.568Z,12.90
2018-11-03T13:28:36.827Z,11.77
2018-11-03T13:31:06.070Z,11.40
2018-11-03T13:33:35.300Z,12.13
2018-11-03T13:36:04.693Z,11.77
2018-11-03T13:38:33.910Z,12.90
2018-11-03T13:41:03.275Z,12.03
2018-11-03T13:43:32.446Z,12.67
2018-11-03T13:46:01.803Z,12.53
2018-11-03T13:48:30.956Z,12.13
2018-11-03T13:51:00.254Z,12.17
2018-11-03T13:53:29.568Z,12.40
2018-11-03T13:55:58.828Z,11.57
2018-11-03T13:58:28.055Z,12.00
2018-11-03T14:00:57.156Z,12.40
2018-11-03T14:03:26.388Z,11.90
2018-11-03T14:05:55.743Z,11.57
2018-11-03T14:08:24.923Z,13.17
2018-11-03T14:10:54.191Z,13.83
2018-11-03T14:13:23.415Z,13.20
2018-11-03T14:15:52.607Z,13.93
2018-11-03T14:18:21.853Z,14.10
2018-11-03T14:20:51.095Z,14.60
2018-11-03T14:23:20.360Z,12.17
2018-11-03T14:25:49.416Z,13.20
2018-11-03T14:28:18.657Z,14.43
2018-11-03T14:30:47.974Z,14.07
2018-11-03T14:33:17.274Z,14.23
2018-11-03T14:35:46.489Z,15.20
2018-11-03T14:38:15.782Z,13.73
2018-11-03T14:40:45.019Z,15.40
2018-11-03T14:43:14.225Z,13.33
2018-11-03T14:45:43.377Z,13.63
2018-11-03T14:48:12.509Z,14.10
2018-11-03T14:50:41.739Z,13.10
2018-11-03T14:53:10.864Z,14.53
2018-11-03T14:55:40.187Z,13.80
2018-11-03T14:58:09.474Z,14.50
2018-11-03T15:00:38.970Z,12.73
2018-11-03T15:03:08.617Z,13.10
2018-11-03T15:05:37.737Z,14.53
2018-11-03T15:08:07.015Z,15.87
2018-11-03T15:10:36.278Z,15.60
2018-11-03T15:13:05.424Z,14.67
2018-11-03T15:15:38.061Z,15.07
2018-11-03T15:18:07.435Z,14.23
2018-11-03T15:20:36.651Z,15.17
2018-11-03T15:23:06.196Z,13.90
2018-11-03T15:25:35.306Z,14.40
2018-11-03T15:28:04.616Z,16.03
2018-11-03T15:30:33.899Z,15.83
2018-11-03T15:33:03.096Z,17.00
2018-11-03T15:35:32.344Z,17.10
2018-11-03T15:38:01.582Z,17.53
2018-11-03T15:40:30.779Z,16.77
2018-11-03T15:42:59.954Z,18.13
2018-11-03T15:45:29.343Z,16.77
2018-11-03T15:47:58.790Z,18.50
2018-11-03T15:50:27.940Z,18.40
2018-11-03T15:52:57.094Z,14.87
2018-11-03T15:55:26.218Z,12.27
2018-11-03T15:57:55.327Z,16.40
2018-11-03T16:00:24.992Z,16.13
2018-11-03T16:02:54.744Z,13.93
2018-11-03T16:05:23.887Z,16.13
2018-11-03T16:07:53.101Z,16.00
2018-11-03T16:10:22.890Z,14.53
2018-11-03T16:12:52.370Z,13.00
2018-11-03T16:15:21.640Z,17.23
2018-11-03T16:17:51.000Z,12.37
2018-11-03T16:20:20.274Z,13.23
2018-11-03T16:22:49.752Z,15.33
2018-11-03T16:25:19.345Z,10.40
2018-11-03T16:27:48.657Z,13.33
2018-11-03T16:30:18.855Z,12.57
2018-11-03T16:32:48.267Z,14.03
2018-11-03T16:35:17.707Z,15.70
2018-11-03T16:37:47.315Z,16.83
2018-11-03T16:40:16.810Z,13.73
2018-11-03T16:42:46.664Z,15.73
2018-11-03T16:45:17.154Z,13.53
2018-11-03T16:47:46.428Z,13.77
2018-11-03T16:50:16.756Z,14.63
2018-11-03T16:52:46.122Z,12.93
2018-11-03T16:55:15.742Z,16.07
2018-11-03T16:57:45.205Z,19.20
2018-11-03T17:00:15.837Z,17.33
2018-11-03T17:02:45.016Z,16.97
2018-11-03T17:05:14.967Z,16.33
2018-11-03T17:07:44.253Z,14.03
2018-11-03T17:10:15.064Z,16.60
2018-11-03T17:12:45.543Z,14.07
2018-11-03T17:15:15.144Z,13.93
2018-11-03T17:17:44.350Z,14.27
2018-11-03T17:20:13.490Z,14.40
2018-11-03T17:22:42.688Z,15.80
2018-11-03T17:25:12.893Z,15.40
2018-11-03T17:27:42.033Z,15.43
2018-11-03T17:30:16.125Z,13.57
2018-11-03T17:32:45.610Z,14.90
2018-11-03T17:35:14.940Z,14.30
2018-11-03T17:37:44.297Z,15.30
2018-11-03T17:40:14.185Z,15.27
2018-11-03T17:42:43.369Z,16.30
2018-11-03T17:45:13.210Z,16.37
2018-11-03T17:47:42.436Z,14.43
2018-11-03T17:50:13.254Z,13.73
2018-11-03T17:52:42.555Z,15.60
2018-11-03T17:55:12.091Z,14.27
2018-11-03T17:57:41.364Z,18.10
2018-11-03T18:00:13.224Z,22.23
2018-11-03T18:02:43.357Z,19.23
2018-11-03T18:05:13.009Z,21.97
2018-11-03T18:07:42.183Z,17.00
2018-11-03T18:10:12.367Z,20.63
2018-11-03T18:12:41.930Z,23.90
2018-11-03T18:15:12.788Z,26.93
2018-11-03T18:17:42.453Z,23.77
2018-11-03T18:20:11.885Z,19.50
2018-11-03T18:22:49.126Z,26.83
2018-11-03T18:25:19.633Z,20.80
2018-11-03T18:27:48.552Z,19.30
2018-11-03T18:30:18.030Z,22.90
2018-11-03T18:32:47.436Z,23.30
2018-11-03T18:35:26.441Z,23.80
2018-11-03T18:37:55.989Z,24.80
2018-11-03T18:40:25.229Z,24.50
2018-11-03T18:42:54.445Z,26.47
2018-11-03T18:45:23.732Z,23.97
2018-11-03T18:47:53.087Z,20.73
2018-11-03T18:50:22.509Z,23.87
2018-11-03T18:52:51.933Z,24.17
2018-11-03T18:55:22.927Z,19.07
2018-11-03T18:57:52.230Z,20.80
2018-11-03T19:00:21.627Z,19.83
2018-11-03T19:02:50.971Z,22.40
2018-11-03T19:05:20.580Z,25.23
2018-11-03T19:07:49.945Z,22.27
2018-11-03T19:10:19.493Z,21.77
2018-11-03T19:12:48.779Z,21.93
2018-11-03T19:15:18.187Z,27.00
2018-11-03T19:17:47.585Z,24.00
2018-11-03T19:20:17.174Z,21.87
2018-11-03T19:22:46.549Z,22.63
2018-11-03T19:25:15.934Z,25.70
2018-11-03T19:27:45.348Z,22.23
2018-11-03T19:30:15.142Z,25.73
2018-11-03T19:32:45.302Z,21.17
2018-11-03T19:35:14.550Z,21.13
2018-11-03T19:37:43.748Z,21.00
2018-11-03T19:40:13.886Z,22.93
2018-11-03T19:42:43.433Z,23.00
2018-11-03T19:45:13.740Z,18.67
2018-11-03T19:47:43.252Z,23.43
2018-11-03T19:50:13.095Z,22.17
2018-11-03T19:52:42.728Z,20.13
2018-11-03T19:55:12.261Z,20.60
2018-11-03T19:57:41.576Z,21.20
2018-11-03T20:00:13.654Z,21.67
2018-11-03T20:02:42.883Z,19.40
2018-11-03T20:05:12.845Z,21.97
2018-11-03T20:07:43.598Z,22.63
2018-11-03T20:10:13.643Z,23.70
2018-11-03T20:12:42.908Z,22.77
2018-11-03T20:15:13.093Z,21.30
2018-11-03T20:17:42.386Z,21.13
2018-11-03T20:20:12.747Z,22.23
2018-11-03T20:22:42.612Z,21.60
2018-11-03T20:25:12.954Z,22.40
2018-11-03T20:27:42.287Z,22.27
2018-11-03T20:30:13.651Z,19.93
2018-11-03T20:32:43.238Z,20.30
2018-11-03T20:35:12.804Z,20.43
2018-11-03T20:37:42.091Z,20.43
2018-11-03T20:40:12.788Z,19.07
2018-11-03T20:42:42.068Z,22.43
2018-11-03T20:45:11.307Z,23.90
2018-11-03T20:47:40.499Z,23.23
2018-11-03T20:50:12.057Z,23.43
2018-11-03T20:52:41.386Z,24.03
2018-11-03T20:55:11.501Z,23.93
2018-11-03T20:57:41.169Z,23.73
2018-11-03T21:00:12.807Z,24.03
2018-11-03T21:02:42.046Z,24.07
2018-11-03T21:05:11.827Z,25.93
2018-11-03T21:07:41.724Z,23.07
2018-11-03T21:10:10.972Z,24.17
2018-11-03T21:12:40.325Z,24.40
2018-11-03T21:15:09.641Z,21.37
2018-11-03T21:17:38.779Z,24.37
2018-11-03T21:20:08.466Z,23.97
2018-11-03T21:22:37.741Z,23.40
2018-11-03T21:25:06.989Z,29.33
2018-11-03T21:27:36.274Z,24.80
2018-11-03T21:30:06.333Z,26.67
2018-11-03T21:32:35.842Z,27.03
2018-11-03T21:35:05.402Z,28.83
2018-11-03T21:37:34.677Z,21.47
2018-11-03T21:40:04.056Z,27.93
2018-11-03T21:42:33.250Z,29.30
2018-11-03T21:45:02.656Z,26.23
2018-11-03T21:47:31.971Z,23.00
2018-11-03T21:50:01.175Z,27.20
2018-11-03T21:52:30.468Z,27.83
2018-11-03T21:54:59.618Z,23.77
2018-11-03T21:57:28.863Z,26.23
2018-11-03T21:59:57.953Z,31.63
2018-11-03T22:02:27.105Z,26.03
2018-11-03T22:04:56.293Z,22.03
2018-11-03T22:07:25.601Z,30.87
2018-11-03T22:09:54.994Z,26.83
2018-11-03T22:12:24.547Z,27.43
2018-11-03T22:14:53.801Z,26.00
2018-11-03T22:17:22.992Z,30.23
2018-11-03T22:19:52.263Z,27.83
2018-11-03T22:22:21.426Z,25.43
2018-11-03T22:24:50.612Z,28.87
2018-11-03T22:27:19.711Z,24.50
2018-11-03T22:29:48.886Z,27.33
2018-11-03T22:32:18.161Z,24.73
2018-11-03T22:34:47.347Z,24.30
2018-11-03T22:37:16.511Z,25.37
2018-11-03T22:39:45.801Z,27.33
2018-11-03T22:42:15.112Z,23.20
2018-11-03T22:44:44.293Z,25.13
2018-11-03T22:47:13.440Z,28.77
2018-11-03T22:49:42.609Z,28.77
2018-11-03T22:52:11.822Z,27.93
2018-11-03T22:54:41.012Z,27.07
2018-11-03T22:57:10.293Z,21.83
2018-11-03T22:59:39.571Z,28.17
2018-11-03T23:02:08.865Z,26.47
2018-11-03T23:04:38.075Z,25.53
2018-11-03T23:07:07.345Z,26.53
2018-11-03T23:09:36.545Z,26.63
2018-11-03T23:12:05.909Z,28.10
2018-11-03T23:14:35.010Z,31.23
2018-11-03T23:17:04.275Z,27.23
2018-11-03T23:19:33.418Z,27.53
2018-11-03T23:22:02.660Z,25.97
2018-11-03T23:24:31.790Z,33.17
2018-11-03T23:27:00.970Z,26.57
2018-11-03T23:29:30.284Z,36.80
2018-11-03T23:31:59.305Z,31.50
2018-11-03T23:34:28.483Z,27.83
2018-11-03T23:36:57.652Z,27.47
2018-11-03T23:39:26.968Z,29.37
2018-11-03T23:41:56.209Z,23.10
2018-11-03T23:44:25.295Z,22.27
2018-11-03T23:46:54.490Z,25.33
2018-11-03T23:49:23.675Z,24.40
2018-11-03T23:51:52.881Z,26.73
2018-11-03T23:54:22.109Z,26.10
2018-11-03T23:56:51.370Z,25.57
2018-11-03T23:59:20.573Z,26.13
